createdAt,value
2018-01-02T00:00:34.940Z,97366.95
2018-01-02T00:03:02.714Z,97380.98
2018-01-02T00:05:30.167Z,97351.01
2018-01-02T00:07:57.622Z,97337.80
2018-01-02T00:10:25.407Z,97327.98
2018-01-02T00:12:52.852Z,97326.95
2018-01-02T00:15:20.307Z,97314.16
2018-01-02T00:17:48.088Z,97295.04
2018-01-02T00:20:15.569Z,97313.75
2018-01-02T00:22:43.016Z,97294.14
2018-01-02T00:25:10.681Z,97295.77
2018-01-02T00:27:38.136Z,97290.13
2018-01-02T00:30:05.593Z,97291.67
2018-01-02T00:32:35.306Z,97302.54
2018-01-02T00:35:02.756Z,97299.00
2018-01-02T00:37:30.210Z,97310.48
2018-01-02T00:39:57.987Z,97316.64
2018-01-02T00:42:25.436Z,97344.45
2018-01-02T00:44:52.881Z,97364.22
2018-01-02T00:47:20.671Z,97380.68
2018-01-02T00:49:48.121Z,97373.70
2018-01-02T00:52:15.576Z,97374.91
2018-01-02T00:54:43.675Z,97383.20
2018-01-02T00:57:11.120Z,97382.41
2018-01-02T00:59:38.559Z,97373.64
2018-01-02T01:02:06.368Z,97375.15
2018-01-02T01:04:33.824Z,97358.06
2018-01-02T01:07:01.279Z,97362.48
2018-01-02T01:09:29.225Z,97369.97
2018-01-02T01:11:56.886Z,97372.52
2018-01-02T01:14:24.335Z,97379.63
2018-01-02T01:16:52.299Z,97386.00
2018-01-02T01:19:19.748Z,97386.69
2018-01-02T01:21:47.208Z,97392.09
2018-01-02T01:24:15.048Z,97398.38
2018-01-02T01:26:42.541Z,97398.23
2018-01-02T01:29:10.017Z,97414.17
2018-01-02T01:31:38.033Z,97416.28
2018-01-02T01:34:05.885Z,97423.52
2018-01-02T01:36:33.344Z,97428.76
2018-01-02T01:39:01.021Z,97419.65
2018-01-02T01:41:28.476Z,97438.06
2018-01-02T01:43:55.925Z,97411.86
2018-01-02T01:46:24.020Z,97425.17
2018-01-02T01:48:55.595Z,97427.73
2018-01-02T01:51:23.037Z,97424.63
2018-01-02T01:53:50.704Z,97421.31
2018-01-02T01:56:18.164Z,97416.86
2018-01-02T01:58:45.601Z,97421.84
2018-01-02T02:01:13.388Z,97405.70
2018-01-02T02:03:40.847Z,97412.94
2018-01-02T02:06:08.309Z,97414.06
2018-01-02T02:08:36.099Z,97413.94
2018-01-02T02:11:03.555Z,97417.58
2018-01-02T02:13:31.005Z,97411.67
2018-01-02T02:15:58.765Z,97418.37
2018-01-02T02:18:26.216Z,97424.91
2018-01-02T02:20:53.672Z,97430.59
2018-01-02T02:23:21.468Z,97417.20
2018-01-02T02:25:48.928Z,97424.90
2018-01-02T02:28:16.382Z,97424.73
2018-01-02T02:30:44.140Z,97441.39
2018-01-02T02:33:11.600Z,97442.70
2018-01-02T02:35:39.385Z,97446.34
2018-01-02T02:38:07.139Z,97445.62
2018-01-02T02:40:46.442Z,97432.78
2018-01-02T02:43:14.335Z,97440.58
2018-01-02T02:45:41.793Z,97424.06
2018-01-02T02:48:09.258Z,97430.45
2018-01-02T02:50:37.028Z,97419.83
2018-01-02T02:53:04.493Z,97417.34
2018-01-02T02:55:31.955Z,97420.98
2018-01-02T02:57:59.537Z,97426.83
2018-01-02T03:00:26.984Z,97424.84
2018-01-02T03:02:54.442Z,97418.88
2018-01-02T03:05:22.089Z,97410.89
2018-01-02T03:07:49.561Z,97425.02
2018-01-02T03:10:17.016Z,97415.08
2018-01-02T03:12:44.772Z,97417.41
2018-01-02T03:15:12.220Z,97422.73
2018-01-02T03:17:39.676Z,97427.34
2018-01-02T03:20:07.491Z,97428.57
2018-01-02T03:22:34.977Z,97425.92
2018-01-02T03:25:02.415Z,97425.42
2018-01-02T03:27:30.156Z,97424.64
2018-01-02T03:29:57.609Z,97428.34
2018-01-02T03:32:25.064Z,97440.58
2018-01-02T03:34:52.828Z,97430.30
2018-01-02T03:37:20.681Z,97427.98
2018-01-02T03:39:48.138Z,97433.39
2018-01-02T03:42:15.841Z,97432.98
2018-01-02T03:44:43.301Z,97436.58
2018-01-02T03:47:10.763Z,97444.05
2018-01-02T03:49:38.517Z,97445.55
2018-01-02T03:52:05.973Z,97450.19
2018-01-02T03:54:33.428Z,97447.72
2018-01-02T03:57:01.100Z,97460.20
2018-01-02T03:59:28.551Z,97466.02
2018-01-02T04:01:56.013Z,97459.31
2018-01-02T04:04:23.895Z,97466.92
2018-01-02T04:06:51.349Z,97462.37
2018-01-02T04:09:18.798Z,97471.81
2018-01-02T04:11:46.588Z,97469.34
2018-01-02T04:14:14.047Z,97480.55
2018-01-02T04:16:41.509Z,97475.92
2018-01-02T04:19:09.272Z,97478.77
2018-01-02T04:21:36.737Z,97479.72
2018-01-02T04:24:04.242Z,97482.25
2018-01-02T04:26:31.960Z,97486.39
2018-01-02T04:28:59.429Z,97492.11
2018-01-02T04:31:26.888Z,97494.86
2018-01-02T04:33:54.636Z,97495.31
2018-01-02T04:36:22.095Z,97496.40
2018-01-02T04:38:49.974Z,97488.73
2018-01-02T04:41:17.955Z,97500.77
2018-01-02T04:43:45.413Z,97503.67
2018-01-02T04:46:12.865Z,97506.98
2018-01-02T04:48:40.940Z,97503.50
2018-01-02T04:51:08.387Z,97503.88
2018-01-02T04:53:35.834Z,97510.26
2018-01-02T04:56:03.619Z,97516.55
2018-01-02T04:58:31.060Z,97521.65
2018-01-02T05:00:58.508Z,97524.56
2018-01-02T05:03:26.316Z,97525.47
2018-01-02T05:05:53.755Z,97520.89
2018-01-02T05:08:21.200Z,97533.03
2018-01-02T05:10:49.604Z,97539.33
2018-01-02T05:13:17.050Z,97542.03
2018-01-02T05:15:44.491Z,97545.70
2018-01-02T05:18:12.261Z,97540.13
2018-01-02T05:20:39.710Z,97560.80
2018-01-02T05:23:07.167Z,97570.37
2018-01-02T05:25:34.999Z,97550.48
2018-01-02T05:28:02.457Z,97565.86
2018-01-02T05:30:30.221Z,97571.41
2018-01-02T05:32:58.592Z,97584.74
2018-01-02T05:35:26.032Z,97567.83
2018-01-02T05:37:53.473Z,97573.17
2018-01-02T05:40:22.200Z,97575.13
2018-01-02T05:42:49.645Z,97557.48
2018-01-02T05:45:17.082Z,97581.61
2018-01-02T05:47:44.889Z,97583.45
2018-01-02T05:50:12.325Z,97584.05
2018-01-02T05:52:39.774Z,97574.69
2018-01-02T05:55:07.584Z,97576.61
2018-01-02T05:57:35.016Z,97576.73
2018-01-02T06:00:02.462Z,97573.25
2018-01-02T06:02:30.123Z,97574.75
2018-01-02T06:04:57.568Z,97580.20
2018-01-02T06:07:25.013Z,97578.32
2018-01-02T06:09:52.957Z,97603.20
2018-01-02T06:12:20.407Z,97605.30
2018-01-02T06:14:47.844Z,97610.13
2018-01-02T06:17:16.252Z,97620.25
2018-01-02T06:19:43.690Z,97630.58
2018-01-02T06:22:11.134Z,97643.83
2018-01-02T06:24:38.942Z,97623.92
2018-01-02T06:27:06.382Z,97645.55
2018-01-02T06:29:33.824Z,97650.27
2018-01-02T06:32:01.638Z,97646.09
2018-01-02T06:34:29.095Z,97657.27
2018-01-02T06:36:56.540Z,97686.77
2018-01-02T06:39:24.309Z,97663.11
2018-01-02T06:41:52.496Z,97671.48
2018-01-02T06:44:19.911Z,97672.33
2018-01-02T06:46:47.614Z,97676.64
2018-01-02T06:49:15.066Z,97688.02
2018-01-02T06:51:42.516Z,97688.91
2018-01-02T06:54:10.312Z,97695.14
2018-01-02T06:56:37.749Z,97692.83
2018-01-02T06:59:05.184Z,97702.16
2018-01-02T07:01:32.996Z,97708.36
2018-01-02T07:04:00.456Z,97704.30
2018-01-02T07:06:27.923Z,97708.88
2018-01-02T07:08:56.224Z,97724.98
2018-01-02T07:11:23.672Z,97702.89
2018-01-02T07:13:51.105Z,97716.70
2018-01-02T07:16:18.976Z,97706.70
2018-01-02T07:18:46.430Z,97714.77
2018-01-02T07:21:13.877Z,97715.80
2018-01-02T07:23:41.660Z,97726.05
2018-01-02T07:26:09.242Z,97735.95
2018-01-02T07:28:36.684Z,97742.02
2018-01-02T07:31:04.612Z,97727.73
2018-01-02T07:33:32.172Z,97730.69
2018-01-02T07:36:00.554Z,97735.98
2018-01-02T07:38:28.289Z,97734.08
2018-01-02T07:40:55.736Z,97749.02
2018-01-02T07:43:24.584Z,97754.80
2018-01-02T07:45:53.066Z,97748.31
2018-01-02T07:48:21.441Z,97762.06
2018-01-02T07:50:48.906Z,97750.82
2018-01-02T07:53:16.712Z,97759.17
2018-01-02T07:55:44.156Z,97758.92
2018-01-02T07:58:12.089Z,97755.55
2018-01-02T08:00:40.049Z,97760.48
2018-01-02T08:03:08.049Z,97763.16
2018-01-02T08:05:35.793Z,97771.41
2018-01-02T08:08:04.557Z,97776.33
2018-01-02T08:10:32.324Z,97786.05
2018-01-02T08:12:59.785Z,97779.61
2018-01-02T08:15:27.434Z,97783.84
2018-01-02T08:17:55.152Z,97787.86
2018-01-02T08:20:23.145Z,97794.45
2018-01-02T08:22:51.550Z,97789.62
2018-01-02T08:25:19.162Z,97797.97
2018-01-02T08:27:46.678Z,97814.90
2018-01-02T08:30:14.480Z,97810.34
2018-01-02T08:32:42.104Z,97798.12
2018-01-02T08:35:09.613Z,97818.36
2018-01-02T08:37:37.827Z,97816.48
2018-01-02T08:40:05.418Z,97820.89
2018-01-02T08:42:33.418Z,97827.48
2018-01-02T08:45:03.566Z,97825.12
2018-01-02T08:47:31.069Z,97838.38
2018-01-02T08:49:59.284Z,97825.05
2018-01-02T08:52:27.421Z,97852.16
2018-01-02T08:54:54.872Z,97847.94
2018-01-02T08:57:22.310Z,97841.34
2018-01-02T08:59:50.746Z,97861.37
2018-01-02T09:02:18.208Z,97846.06
2018-01-02T09:04:45.673Z,97864.27
2018-01-02T09:07:13.730Z,97850.33
2018-01-02T09:09:41.833Z,97862.91
2018-01-02T09:12:15.402Z,97865.59
2018-01-02T09:14:48.368Z,97870.11
2018-01-02T09:17:15.818Z,97869.03
2018-01-02T09:19:43.657Z,97886.22
2018-01-02T09:22:11.117Z,97860.44
2018-01-02T09:24:39.719Z,97875.84
2018-01-02T09:27:07.535Z,97864.36
2018-01-02T09:29:35.353Z,97875.86
2018-01-02T09:32:02.813Z,97864.94
2018-01-02T09:34:31.137Z,97872.98
2018-01-02T09:36:58.654Z,97867.55
2018-01-02T09:39:26.701Z,97855.33
2018-01-02T09:41:54.444Z,97853.42
2018-01-02T09:44:21.947Z,97849.58
2018-01-02T09:46:50.761Z,97856.77
2018-01-02T09:49:18.677Z,97853.67
2018-01-02T09:51:46.113Z,97844.72
2018-01-02T09:54:13.558Z,97855.86
2018-01-02T09:56:41.361Z,97858.34
2018-01-02T09:59:08.801Z,97863.84
2018-01-02T10:01:36.238Z,97870.79
2018-01-02T10:04:04.042Z,97852.31
2018-01-02T10:06:31.495Z,97872.80
2018-01-02T10:08:58.945Z,97869.20
2018-01-02T10:11:27.325Z,97889.55
2018-01-02T10:13:54.861Z,97867.29
2018-01-02T10:16:22.347Z,97870.11
2018-01-02T10:18:50.042Z,97883.63
2018-01-02T10:21:18.245Z,97884.05
2018-01-02T10:23:45.714Z,97875.08
2018-01-02T10:26:13.416Z,97897.55
2018-01-02T10:28:40.855Z,97899.95
2018-01-02T10:31:08.729Z,97878.82
2018-01-02T10:33:36.686Z,97878.58
2018-01-02T10:36:04.172Z,97880.13
2018-01-02T10:38:31.626Z,97872.33
2018-01-02T10:40:59.634Z,97869.54
2018-01-02T10:43:27.659Z,97879.91
2018-01-02T10:45:55.138Z,97891.23
2018-01-02T10:48:23.850Z,97886.75
2018-01-02T10:50:51.290Z,97889.93
2018-01-02T10:53:19.261Z,97905.30
2018-01-02T10:55:47.148Z,97888.11
2018-01-02T10:58:14.592Z,97885.31
2018-01-02T11:00:47.477Z,97898.11
2018-01-02T11:03:15.370Z,97903.48
2018-01-02T11:05:42.812Z,97897.75
2018-01-02T11:08:10.354Z,97932.38
2018-01-02T11:10:43.871Z,97922.09
2018-01-02T11:13:12.032Z,97915.09
2018-01-02T11:15:39.482Z,97918.34
2018-01-02T11:18:07.194Z,97934.70
2018-01-02T11:20:34.632Z,97916.41
2018-01-02T11:23:02.065Z,97930.60
2018-01-02T11:25:30.028Z,97929.20
2018-01-02T11:27:58.222Z,97944.41
2018-01-02T11:30:25.697Z,97940.39
2018-01-02T11:32:53.497Z,97952.55
2018-01-02T11:35:20.942Z,97956.13
2018-01-02T11:37:48.384Z,97951.44
2018-01-02T11:40:16.172Z,97943.75
2018-01-02T11:42:43.616Z,97965.03
2018-01-02T11:45:11.056Z,97963.14
2018-01-02T11:47:38.809Z,97951.44
2018-01-02T11:50:06.746Z,97951.67
2018-01-02T11:52:34.260Z,97962.29
2018-01-02T11:55:01.970Z,97943.16
2018-01-02T11:57:29.419Z,97959.10
2018-01-02T11:59:56.856Z,97951.64
2018-01-02T12:02:24.849Z,97961.19
2018-01-02T12:04:52.301Z,97953.46
2018-01-02T12:07:19.742Z,97949.95
2018-01-02T12:09:47.537Z,97948.19
2018-01-02T12:12:14.976Z,97930.06
2018-01-02T12:14:42.417Z,97936.41
2018-01-02T12:17:10.244Z,97939.05
2018-01-02T12:19:37.697Z,97932.33
2018-01-02T12:22:05.136Z,97937.84
2018-01-02T12:24:33.219Z,97934.63
2018-01-02T12:27:00.669Z,97943.37
2018-01-02T12:29:28.116Z,97946.38
2018-01-02T12:31:55.909Z,97944.97
2018-01-02T12:34:23.352Z,97947.06
2018-01-02T12:36:50.797Z,97947.62
2018-01-02T12:39:18.514Z,97946.72
2018-01-02T12:41:45.976Z,97953.95
2018-01-02T12:44:13.416Z,97942.97
2018-01-02T12:46:41.285Z,97937.07
2018-01-02T12:49:08.728Z,97925.02
2018-01-02T12:51:38.425Z,97932.99
2018-01-02T12:54:06.747Z,97955.16
2018-01-02T12:56:34.192Z,97955.05
2018-01-02T12:59:01.634Z,97950.27
2018-01-02T13:01:29.434Z,97958.67
2018-01-02T13:03:56.889Z,97956.88
2018-01-02T13:06:24.332Z,97962.31
2018-01-02T13:08:52.113Z,97959.80
2018-01-02T13:11:19.560Z,97970.19
2018-01-02T13:13:47.008Z,97969.99
2018-01-02T13:16:15.105Z,97976.41
2018-01-02T13:18:42.541Z,97979.16
2018-01-02T13:21:09.988Z,97978.09
2018-01-02T13:23:37.801Z,97979.69
2018-01-02T13:26:05.257Z,97974.67
2018-01-02T13:28:33.273Z,97982.42
2018-01-02T13:31:01.089Z,97976.62
2018-01-02T13:33:28.527Z,97987.39
2018-01-02T13:35:55.964Z,97993.42
2018-01-02T13:38:24.396Z,97998.66
2018-01-02T13:40:51.835Z,97994.77
2018-01-02T13:43:19.838Z,98007.89
2018-01-02T13:45:47.412Z,97993.52
2018-01-02T13:48:14.873Z,97992.37
2018-01-02T13:50:42.332Z,98000.45
2018-01-02T13:53:11.006Z,98009.20
2018-01-02T13:55:38.460Z,97992.77
2018-01-02T13:58:06.120Z,97990.70
2018-01-02T14:00:33.993Z,98003.18
2018-01-02T14:03:01.942Z,97994.06
2018-01-02T14:05:30.140Z,98001.30
2018-01-02T14:07:57.909Z,98010.41
2018-01-02T14:10:25.421Z,98007.75
2018-01-02T14:12:52.869Z,98019.64
2018-01-02T14:15:20.615Z,98017.02
2018-01-02T14:17:48.064Z,98023.61
2018-01-02T14:20:15.725Z,98028.63
2018-01-02T14:22:43.889Z,98035.64
2018-01-02T14:25:11.341Z,98046.12
2018-01-02T14:27:38.785Z,98050.23
2018-01-02T14:30:06.589Z,98048.03
2018-01-02T14:32:34.320Z,98057.84
2018-01-02T14:35:01.767Z,98046.34
2018-01-02T14:37:29.576Z,98078.48
2018-01-02T14:39:57.571Z,98067.97
2018-01-02T14:42:25.026Z,98052.59
2018-01-02T14:44:52.872Z,98058.33
2018-01-02T14:47:20.320Z,98079.13
2018-01-02T14:49:47.765Z,98065.19
2018-01-02T14:52:15.568Z,98086.98
2018-01-02T14:54:46.064Z,98087.19
2018-01-02T14:57:13.623Z,98087.69
2018-01-02T14:59:41.464Z,98092.95
2018-01-02T15:02:08.948Z,98085.80
2018-01-02T15:04:36.453Z,98087.52
2018-01-02T15:07:04.321Z,98103.03
2018-01-02T15:09:31.834Z,98112.25
2018-01-02T15:11:59.327Z,98104.16
2018-01-02T15:21:12.217Z,98119.98
2018-01-02T15:23:39.680Z,98126.53
2018-01-02T15:26:07.128Z,98119.98
2018-01-02T15:28:34.896Z,98133.45
2018-01-02T15:31:02.341Z,98135.81
2018-01-02T15:33:30.155Z,98131.73
2018-01-02T15:35:57.893Z,98135.82
2018-01-02T15:38:25.336Z,98129.88
2018-01-02T15:40:52.868Z,98140.28
2018-01-02T15:43:20.897Z,98149.75
2018-01-02T15:45:48.340Z,98155.81
2018-01-02T15:48:15.810Z,98151.17
2018-01-02T15:50:43.643Z,98158.60
2018-01-02T15:53:11.140Z,98163.97
2018-01-02T15:55:39.060Z,98151.47
2018-01-02T15:58:06.884Z,98161.20
2018-01-02T16:00:34.377Z,98165.95
2018-01-02T16:03:01.834Z,98169.91
2018-01-02T16:05:29.568Z,98181.77
2018-01-02T16:07:57.050Z,98179.77
2018-01-02T16:10:24.544Z,98178.34
2018-01-02T16:12:52.268Z,98176.98
2018-01-02T16:15:19.719Z,98180.62
2018-01-02T16:17:47.517Z,98194.59
2018-01-02T16:20:15.249Z,98192.61
2018-01-02T16:22:42.700Z,98197.02
2018-01-02T16:25:10.148Z,98188.98
2018-01-02T16:27:38.265Z,98197.70
2018-01-02T16:30:05.719Z,98203.98
2018-01-02T16:32:33.173Z,98209.09
2018-01-02T16:35:00.940Z,98196.97
2018-01-02T16:37:28.408Z,98192.98
2018-01-02T16:39:56.073Z,98207.90
2018-01-02T16:42:23.936Z,98207.92
2018-01-02T16:44:51.760Z,98210.77
2018-01-02T16:47:19.209Z,98205.98
2018-01-02T16:49:47.547Z,98218.24
2018-01-02T16:52:15.002Z,98227.32
2018-01-02T16:54:42.516Z,98222.57
2018-01-02T16:57:10.549Z,98219.55
2018-01-02T16:59:38.024Z,98226.20
2018-01-02T17:02:05.496Z,98225.13
2018-01-02T17:04:33.738Z,98218.88
2018-01-02T17:07:01.219Z,98217.21
2018-01-02T17:09:28.665Z,98219.70
2018-01-02T17:11:56.484Z,98218.42
2018-01-02T17:14:24.528Z,98219.52
2018-01-02T17:16:52.337Z,98229.95
2018-01-02T17:19:20.097Z,98218.30
2018-01-02T17:21:47.541Z,98228.28
2018-01-02T17:24:15.140Z,98223.50
2018-01-02T17:26:43.169Z,98222.55
2018-01-02T17:29:10.628Z,98224.14
2018-01-02T17:31:38.550Z,98234.44
2018-01-02T17:34:06.432Z,98232.63
2018-01-02T17:36:33.894Z,98234.28
2018-01-02T17:39:01.482Z,98232.44
2018-01-02T17:41:29.164Z,98228.75
2018-01-02T17:43:56.705Z,98224.13
2018-01-02T17:46:25.000Z,98230.58
2018-01-02T17:48:53.016Z,98226.90
2018-01-02T17:51:20.463Z,98227.48
2018-01-02T17:53:48.744Z,98233.53
2018-01-02T17:56:16.647Z,98216.97
2018-01-02T17:58:44.246Z,98217.02
2018-01-02T18:01:11.693Z,98223.31
2018-01-02T18:03:39.329Z,98221.16
2018-01-02T18:06:06.881Z,98227.10
2018-01-02T18:08:34.320Z,98218.11
2018-01-02T18:11:02.333Z,98225.17
2018-01-02T18:13:29.784Z,98224.91
2018-01-02T18:15:57.237Z,98226.18
2018-01-02T18:18:25.322Z,98221.21
2018-01-02T18:20:52.799Z,98232.84
2018-01-02T18:23:20.264Z,98239.85
2018-01-02T18:25:48.046Z,98232.26
2018-01-02T18:28:15.524Z,98244.95
2018-01-02T18:30:43.182Z,98240.25
2018-01-02T18:33:11.009Z,98249.75
2018-01-02T18:35:38.553Z,98244.94
2018-01-02T18:38:06.005Z,98242.64
2018-01-02T18:40:33.983Z,98251.50
2018-01-02T18:43:01.552Z,98247.52
2018-01-02T18:45:29.029Z,98249.19
2018-01-02T18:47:56.976Z,98256.37
2018-01-02T18:50:24.433Z,98263.26
2018-01-02T18:52:52.256Z,98262.99
2018-01-02T18:55:20.121Z,98266.92
2018-01-02T18:57:47.737Z,98268.86
2018-01-02T19:00:15.654Z,98271.25
2018-01-02T19:02:43.776Z,98264.38
2018-01-02T19:05:11.256Z,98267.96
2018-01-02T19:07:38.726Z,98271.94
2018-01-02T19:10:06.586Z,98277.06
2018-01-02T19:12:34.086Z,98279.36
2018-01-02T19:15:01.562Z,98277.61
2018-01-02T19:17:29.268Z,98278.66
2018-01-02T19:19:57.263Z,98276.31
2018-01-02T19:22:24.852Z,98282.97
2018-01-02T19:24:52.888Z,98273.56
2018-01-02T19:27:20.357Z,98290.49
2018-01-02T19:29:48.065Z,98283.27
2018-01-02T19:32:16.152Z,98286.45
2018-01-02T19:34:43.652Z,98286.33
2018-01-02T19:37:11.102Z,98280.45
2018-01-02T19:39:38.862Z,98285.45
2018-01-02T19:42:06.354Z,98279.03
2018-01-02T19:44:33.785Z,98280.28
2018-01-02T19:47:01.710Z,98293.58
2018-01-02T19:49:29.174Z,98287.13
2018-01-02T19:51:56.665Z,98305.09
2018-01-02T19:54:24.674Z,98301.22
2018-01-02T19:56:52.133Z,98306.55
2018-01-02T19:59:19.627Z,98313.00
2018-01-02T20:01:48.167Z,98318.64
2018-01-02T20:04:15.619Z,98312.67
2018-01-02T20:06:43.108Z,98314.12
2018-01-02T20:09:11.045Z,98302.22
2018-01-02T20:11:38.521Z,98304.57
2018-01-02T20:14:05.975Z,98302.22
2018-01-02T20:16:34.035Z,98307.94
2018-01-02T20:19:01.516Z,98314.69
2018-01-02T20:21:29.009Z,98304.55
2018-01-02T20:23:56.859Z,98314.09
2018-01-02T20:26:24.321Z,98310.66
2018-01-02T20:28:51.799Z,98309.98
2018-01-02T20:31:19.853Z,98310.88
2018-01-02T20:33:47.355Z,98304.05
2018-01-02T20:36:15.232Z,98304.81
2018-01-02T20:38:43.182Z,98305.02
2018-01-02T20:41:10.682Z,98308.24
2018-01-02T20:43:38.167Z,98299.11
2018-01-02T20:46:05.838Z,98302.41
2018-01-02T20:48:33.304Z,98298.84
2018-01-02T20:51:00.794Z,98288.19
2018-01-02T20:53:28.521Z,98282.95
2018-01-02T20:55:55.986Z,98282.67
2018-01-02T20:58:23.693Z,98276.23
2018-01-02T21:00:51.821Z,98282.32
2018-01-02T21:03:19.659Z,98281.61
2018-01-02T21:05:47.131Z,98278.02
2018-01-02T21:08:15.103Z,98282.36
2018-01-02T21:10:42.563Z,98284.39
2018-01-02T21:13:10.014Z,98279.28
2018-01-02T21:15:37.797Z,98281.00
2018-01-02T21:18:05.253Z,98277.98
2018-01-02T21:20:33.055Z,98273.25
2018-01-02T21:23:01.095Z,98268.44
2018-01-02T21:25:28.542Z,98268.80
2018-01-02T21:27:55.995Z,98269.03
2018-01-02T21:30:23.778Z,98276.03
2018-01-02T21:32:51.247Z,98272.41
2018-01-02T21:35:18.703Z,98268.30
2018-01-02T21:37:46.475Z,98269.23
2018-01-02T21:40:13.932Z,98260.08
2018-01-02T21:42:41.377Z,98260.94
2018-01-02T21:45:09.157Z,98262.22
2018-01-02T21:47:36.609Z,98257.95
2018-01-02T21:50:04.055Z,98258.88
2018-01-02T21:52:31.833Z,98250.31
2018-01-02T21:54:59.941Z,98242.23
2018-01-02T21:57:27.399Z,98244.55
2018-01-02T21:59:55.442Z,98239.87
2018-01-02T22:02:22.896Z,98239.17
2018-01-02T22:04:50.897Z,98231.89
2018-01-02T22:07:19.365Z,98226.30
2018-01-02T22:09:46.808Z,98230.94
2018-01-02T22:12:15.671Z,98227.35
2018-01-02T22:14:43.555Z,98224.28
2018-01-02T22:17:11.007Z,98224.39
2018-01-02T22:19:38.592Z,98220.81
2018-01-02T22:22:06.269Z,98217.98
2018-01-02T22:24:33.720Z,98213.24
2018-01-02T22:27:01.170Z,98213.47
2018-01-02T22:29:28.962Z,98212.80
2018-01-02T22:31:56.422Z,98211.47
2018-01-02T22:34:23.864Z,98204.05
2018-01-02T22:36:51.952Z,98200.19
2018-01-02T22:39:19.409Z,98204.01
2018-01-02T22:41:46.860Z,98195.30
2018-01-02T22:44:14.941Z,98180.80
2018-01-02T22:46:42.381Z,98170.98
2018-01-02T22:49:09.833Z,98165.36
2018-01-02T22:51:37.649Z,98167.41
2018-01-02T22:54:05.106Z,98166.13
2018-01-02T22:56:32.569Z,98175.84
2018-01-02T22:59:00.341Z,98161.33
2018-01-02T23:01:27.794Z,98154.53
2018-01-02T23:03:55.240Z,98145.04
2018-01-02T23:06:25.156Z,98137.95
2018-01-02T23:08:52.600Z,98135.94
2018-01-02T23:11:20.046Z,98131.22
2018-01-02T23:13:47.846Z,98125.23
2018-01-02T23:16:15.303Z,98127.20
2018-01-02T23:18:42.757Z,98116.47
2018-01-02T23:21:10.536Z,98115.89
2018-01-02T23:23:37.984Z,98106.26
2018-01-02T23:26:05.433Z,98099.97
2018-01-02T23:28:33.234Z,98094.56
2018-01-02T23:31:00.682Z,98097.42
2018-01-02T23:33:28.128Z,98092.66
2018-01-02T23:35:55.906Z,98077.09
2018-01-02T23:38:23.357Z,98078.55
2018-01-02T23:40:50.800Z,98073.23
2018-01-02T23:43:18.896Z,98065.32
2018-01-02T23:45:46.345Z,98064.78
2018-01-02T23:48:13.793Z,98058.16
2018-01-02T23:50:41.585Z,98052.85
2018-01-02T23:53:09.028Z,98047.55
2018-01-02T23:55:36.467Z,98044.48
2018-01-02T23:58:04.276Z,98039.40
